Omidiyeh, Iran
Current Conditions -  °F | °C
As of 11:00 AM on Wednesday 22 Oct 2014 (Local Time) from OIAG Reporting Station
Clear Clear  
Wind Chill: 79°   Ceiling: Unl
Heat Index: 79°   Visibility: 6mi
Dew Point: 46°   Wind: 14mph
Humidity: 32%   Direction: 340°NNW
Pressure: 30.12"   Gusts: NA
Location:  30.75°N, 49.71°E
Report Text: OIAG 220800Z 34012KT CAVOK 26/08 Q1020
Loading
Personal Weather Stations






























Interactive Weather Map New forecast layout! Learn more

10-Day Weather Forecast

Advertisements
Track Severe Weather on mobile